sensor_id;sensor_type;location;lat;lon;timestamp;P1;durP1;ratioP1;P2;durP2;ratioP2
20118;SDS011;10220;42.716;23.306;2023-05-01T00:02:15;3.13;;;2.83;;
20118;SDS011;10220;42.716;23.306;2023-05-01T00:04:46;3.05;;;2.75;;
20118;SDS011;10220;42.716;23.306;2023-05-01T00:07:11;4.20;;;3.50;;
20118;SDS011;10220;42.716;23.306;2023-05-01T00:09:37;4.70;;;3.30;;
20118;SDS011;10220;42.716;23.306;2023-05-01T00:12:02;3.85;;;3.17;;
20118;SDS011;10220;42.716;23.306;2023-05-01T00:14:31;5.75;;;3.55;;
20118;SDS011;10220;42.716;23.306;2023-05-01T00:17:01;6.47;;;3.22;;
20118;SDS011;10220;42.716;23.306;2023-05-01T00:19:27;5.28;;;2.88;;
20118;SDS011;10220;42.716;23.306;2023-05-01T00:21:52;3.40;;;2.90;;
20118;SDS011;10220;42.716;23.306;2023-05-01T00:24:18;5.32;;;3.42;;
20118;SDS011;10220;42.716;23.306;2023-05-01T00:26:43;5.05;;;3.00;;
20118;SDS011;10220;42.716;23.306;2023-05-01T00:29:09;4.75;;;3.20;;
20118;SDS011;10220;42.716;23.306;2023-05-01T00:31:35;3.67;;;2.55;;
20118;SDS011;10220;42.716;23.306;2023-05-01T00:34:00;3.67;;;3.00;;
20118;SDS011;10220;42.716;23.306;2023-05-01T00:36:38;3.85;;;2.70;;
20118;SDS011;10220;42.716;23.306;2023-05-01T00:39:04;3.75;;;2.50;;
20118;SDS011;10220;42.716;23.306;2023-05-01T00:41:31;4.10;;;3.35;;
20118;SDS011;10220;42.716;23.306;2023-05-01T00:43:58;9.65;;;3.83;;
20118;SDS011;10220;42.716;23.306;2023-05-01T00:46:26;3.47;;;3.05;;
20118;SDS011;10220;42.716;23.306;2023-05-01T00:48:53;4.78;;;3.08;;
20118;SDS011;10220;42.716;23.306;2023-05-01T00:51:19;3.50;;;3.03;;
20118;SDS011;10220;42.716;23.306;2023-05-01T00:53:46;4.60;;;2.72;;
20118;SDS011;10220;42.716;23.306;2023-05-01T00:56:11;5.05;;;3.50;;
20118;SDS011;10220;42.716;23.306;2023-05-01T00:58:41;4.55;;;3.25;;
20118;SDS011;10220;42.716;23.306;2023-05-01T01:01:06;4.13;;;3.50;;
20118;SDS011;10220;42.716;23.306;2023-05-01T01:03:35;4.47;;;2.92;;
20118;SDS011;10220;42.716;23.306;2023-05-01T01:06:06;3.53;;;3.05;;
20118;SDS011;10220;42.716;23.306;2023-05-01T01:08:41;6.65;;;3.70;;
20118;SDS011;10220;42.716;23.306;2023-05-01T01:21:43;4.40;;;3.13;;
20118;SDS011;10220;42.716;23.306;2023-05-01T01:24:15;5.35;;;3.40;;
20118;SDS011;10220;42.716;23.306;2023-05-01T01:29:55;4.20;;;2.85;;
20118;SDS011;10220;42.716;23.306;2023-05-01T01:35:05;4.13;;;3.03;;
20118;SDS011;10220;42.716;23.306;2023-05-01T01:37:38;3.90;;;3.08;;
20118;SDS011;10220;42.716;23.306;2023-05-01T01:40:10;5.00;;;3.25;;
20118;SDS011;10220;42.716;23.306;2023-05-01T01:45:41;8.45;;;3.50;;
20118;SDS011;10220;42.716;23.306;2023-05-01T01:48:10;5.20;;;3.10;;
20118;SDS011;10220;42.716;23.306;2023-05-01T01:50:41;4.93;;;3.33;;
20118;SDS011;10220;42.716;23.306;2023-05-01T01:53:12;5.22;;;3.05;;
20118;SDS011;10220;42.716;23.306;2023-05-01T01:55:44;3.30;;;2.95;;
20118;SDS011;10220;42.716;23.306;2023-05-01T01:58:11;4.75;;;3.33;;
20118;SDS011;10220;42.716;23.306;2023-05-01T02:00:40;5.75;;;3.45;;
20118;SDS011;10220;42.716;23.306;2023-05-01T02:03:08;4.45;;;3.33;;
20118;SDS011;10220;42.716;23.306;2023-05-01T02:05:37;4.75;;;3.38;;
20118;SDS011;10220;42.716;23.306;2023-05-01T02:08:05;3.85;;;3.50;;
20118;SDS011;10220;42.716;23.306;2023-05-01T02:10:33;8.80;;;3.75;;
20118;SDS011;10220;42.716;23.306;2023-05-01T02:13:00;3.95;;;3.17;;
20118;SDS011;10220;42.716;23.306;2023-05-01T02:15:27;5.65;;;3.30;;
20118;SDS011;10220;42.716;23.306;2023-05-01T02:17:54;4.22;;;3.35;;
20118;SDS011;10220;42.716;23.306;2023-05-01T02:20:21;3.70;;;3.28;;
20118;SDS011;10220;42.716;23.306;2023-05-01T02:22:46;4.40;;;2.97;;
20118;SDS011;10220;42.716;23.306;2023-05-01T02:25:15;4.85;;;3.25;;
20118;SDS011;10220;42.716;23.306;2023-05-01T02:27:45;4.32;;;3.50;;
20118;SDS011;10220;42.716;23.306;2023-05-01T02:30:17;6.70;;;3.42;;
20118;SDS011;10220;42.716;23.306;2023-05-01T02:32:42;4.88;;;3.50;;
20118;SDS011;10220;42.716;23.306;2023-05-01T02:35:08;6.03;;;3.85;;
20118;SDS011;10220;42.716;23.306;2023-05-01T02:37:34;4.53;;;3.50;;
20118;SDS011;10220;42.716;23.306;2023-05-01T02:40:00;3.95;;;3.33;;
20118;SDS011;10220;42.716;23.306;2023-05-01T02:42:27;5.38;;;3.53;;
20118;SDS011;10220;42.716;23.306;2023-05-01T02:44:56;6.95;;;3.75;;
20118;SDS011;10220;42.716;23.306;2023-05-01T02:47:24;5.13;;;3.38;;
20118;SDS011;10220;42.716;23.306;2023-05-01T02:49:51;5.88;;;4.45;;
20118;SDS011;10220;42.716;23.306;2023-05-01T02:52:19;6.47;;;3.72;;
20118;SDS011;10220;42.716;23.306;2023-05-01T02:54:46;7.18;;;3.55;;
20118;SDS011;10220;42.716;23.306;2023-05-01T02:57:12;5.65;;;3.55;;
20118;SDS011;10220;42.716;23.306;2023-05-01T02:59:38;4.68;;;3.55;;
20118;SDS011;10220;42.716;23.306;2023-05-01T03:02:04;5.43;;;3.33;;
20118;SDS011;10220;42.716;23.306;2023-05-01T03:04:30;3.92;;;2.88;;
20118;SDS011;10220;42.716;23.306;2023-05-01T03:06:56;6.38;;;3.85;;
20118;SDS011;10220;42.716;23.306;2023-05-01T03:09:21;3.63;;;2.83;;
20118;SDS011;10220;42.716;23.306;2023-05-01T03:11:47;6.72;;;4.40;;
20118;SDS011;10220;42.716;23.306;2023-05-01T03:14:15;4.75;;;3.78;;
20118;SDS011;10220;42.716;23.306;2023-05-01T03:16:40;7.43;;;4.63;;
20118;SDS011;10220;42.716;23.306;2023-05-01T03:19:06;6.43;;;4.38;;
20118;SDS011;10220;42.716;23.306;2023-05-01T03:21:32;7.28;;;4.82;;
20118;SDS011;10220;42.716;23.306;2023-05-01T03:24:01;7.25;;;3.70;;
20118;SDS011;10220;42.716;23.306;2023-05-01T03:26:27;8.77;;;4.80;;
20118;SDS011;10220;42.716;23.306;2023-05-01T03:28:52;9.52;;;4.00;;
20118;SDS011;10220;42.716;23.306;2023-05-01T03:31:18;5.43;;;3.20;;
20118;SDS011;10220;42.716;23.306;2023-05-01T03:33:44;7.95;;;3.50;;
20118;SDS011;10220;42.716;23.306;2023-05-01T03:36:09;4.32;;;2.70;;
20118;SDS011;10220;42.716;23.306;2023-05-01T03:38:40;6.45;;;4.05;;
20118;SDS011;10220;42.716;23.306;2023-05-01T03:41:06;4.10;;;3.25;;
20118;SDS011;10220;42.716;23.306;2023-05-01T03:43:32;5.97;;;3.38;;
20118;SDS011;10220;42.716;23.306;2023-05-01T03:45:57;5.47;;;3.38;;
20118;SDS011;10220;42.716;23.306;2023-05-01T03:48:23;4.70;;;3.03;;
20118;SDS011;10220;42.716;23.306;2023-05-01T03:50:49;5.57;;;3.45;;
20118;SDS011;10220;42.716;23.306;2023-05-01T03:53:14;3.97;;;2.70;;
20118;SDS011;10220;42.716;23.306;2023-05-01T03:55:40;5.82;;;3.17;;
20118;SDS011;10220;42.716;23.306;2023-05-01T03:58:06;5.47;;;3.70;;
20118;SDS011;10220;42.716;23.306;2023-05-01T04:00:32;6.82;;;3.25;;
20118;SDS011;10220;42.716;23.306;2023-05-01T04:03:01;4.72;;;3.53;;
20118;SDS011;10220;42.716;23.306;2023-05-01T04:05:27;6.88;;;3.35;;
20118;SDS011;10220;42.716;23.306;2023-05-01T04:07:56;5.22;;;2.88;;
20118;SDS011;10220;42.716;23.306;2023-05-01T04:10:24;4.85;;;3.50;;
20118;SDS011;10220;42.716;23.306;2023-05-01T04:12:50;5.45;;;3.47;;
20118;SDS011;10220;42.716;23.306;2023-05-01T04:15:22;4.50;;;3.78;;
20118;SDS011;10220;42.716;23.306;2023-05-01T04:17:47;6.93;;;3.65;;
20118;SDS011;10220;42.716;23.306;2023-05-01T04:20:13;5.53;;;3.85;;
20118;SDS011;10220;42.716;23.306;2023-05-01T04:22:38;5.15;;;3.80;;
20118;SDS011;10220;42.716;23.306;2023-05-01T04:25:04;5.03;;;3.75;;
20118;SDS011;10220;42.716;23.306;2023-05-01T04:27:36;4.30;;;3.17;;
20118;SDS011;10220;42.716;23.306;2023-05-01T04:30:04;6.10;;;3.53;;
20118;SDS011;10220;42.716;23.306;2023-05-01T04:32:30;3.75;;;3.42;;
20118;SDS011;10220;42.716;23.306;2023-05-01T04:34:59;5.50;;;3.25;;
20118;SDS011;10220;42.716;23.306;2023-05-01T04:37:28;6.65;;;3.72;;
20118;SDS011;10220;42.716;23.306;2023-05-01T04:40:08;4.28;;;3.10;;
20118;SDS011;10220;42.716;23.306;2023-05-01T04:43:12;5.15;;;3.55;;
20118;SDS011;10220;42.716;23.306;2023-05-01T04:45:44;4.88;;;3.63;;
20118;SDS011;10220;42.716;23.306;2023-05-01T04:48:22;6.03;;;4.03;;
20118;SDS011;10220;42.716;23.306;2023-05-01T04:50:48;4.45;;;3.03;;
20118;SDS011;10220;42.716;23.306;2023-05-01T04:53:13;4.63;;;3.22;;
20118;SDS011;10220;42.716;23.306;2023-05-01T04:55:39;3.22;;;2.92;;
20118;SDS011;10220;42.716;23.306;2023-05-01T04:58:04;7.63;;;3.65;;
20118;SDS011;10220;42.716;23.306;2023-05-01T05:00:30;4.13;;;3.67;;
20118;SDS011;10220;42.716;23.306;2023-05-01T05:02:56;7.97;;;4.30;;
20118;SDS011;10220;42.716;23.306;2023-05-01T05:05:22;5.47;;;3.90;;
20118;SDS011;10220;42.716;23.306;2023-05-01T05:07:48;5.07;;;3.53;;
20118;SDS011;10220;42.716;23.306;2023-05-01T05:10:13;7.95;;;3.97;;
20118;SDS011;10220;42.716;23.306;2023-05-01T05:12:41;5.28;;;3.67;;
20118;SDS011;10220;42.716;23.306;2023-05-01T05:15:07;4.85;;;4.07;;
20118;SDS011;10220;42.716;23.306;2023-05-01T05:17:33;5.78;;;3.40;;
20118;SDS011;10220;42.716;23.306;2023-05-01T05:19:59;4.63;;;3.38;;
20118;SDS011;10220;42.716;23.306;2023-05-01T05:22:24;5.85;;;3.72;;
20118;SDS011;10220;42.716;23.306;2023-05-01T05:24:53;8.75;;;3.67;;
20118;SDS011;10220;42.716;23.306;2023-05-01T05:27:21;4.20;;;2.90;;
20118;SDS011;10220;42.716;23.306;2023-05-01T05:29:47;3.55;;;2.90;;
20118;SDS011;10220;42.716;23.306;2023-05-01T05:32:12;6.47;;;4.10;;
20118;SDS011;10220;42.716;23.306;2023-05-01T05:34:38;4.90;;;3.13;;
20118;SDS011;10220;42.716;23.306;2023-05-01T05:37:04;6.38;;;3.70;;
20118;SDS011;10220;42.716;23.306;2023-05-01T05:39:33;4.72;;;3.75;;
20118;SDS011;10220;42.716;23.306;2023-05-01T05:41:59;4.75;;;4.07;;
20118;SDS011;10220;42.716;23.306;2023-05-01T05:44:33;4.95;;;3.63;;
20118;SDS011;10220;42.716;23.306;2023-05-01T05:47:00;5.30;;;3.50;;
20118;SDS011;10220;42.716;23.306;2023-05-01T05:49:28;5.82;;;3.53;;
20118;SDS011;10220;42.716;23.306;2023-05-01T05:51:54;6.50;;;3.85;;
20118;SDS011;10220;42.716;23.306;2023-05-01T05:54:23;7.25;;;4.13;;
20118;SDS011;10220;42.716;23.306;2023-05-01T05:56:51;6.43;;;4.10;;
20118;SDS011;10220;42.716;23.306;2023-05-01T05:59:17;7.38;;;4.60;;
20118;SDS011;10220;42.716;23.306;2023-05-01T06:01:42;8.57;;;5.65;;
20118;SDS011;10220;42.716;23.306;2023-05-01T06:04:08;6.60;;;4.22;;
20118;SDS011;10220;42.716;23.306;2023-05-01T06:06:33;8.75;;;4.95;;
20118;SDS011;10220;42.716;23.306;2023-05-01T06:08:59;5.85;;;5.00;;
20118;SDS011;10220;42.716;23.306;2023-05-01T06:11:25;8.25;;;4.82;;
20118;SDS011;10220;42.716;23.306;2023-05-01T06:13:51;7.95;;;4.75;;
20118;SDS011;10220;42.716;23.306;2023-05-01T06:16:17;6.30;;;4.57;;
20118;SDS011;10220;42.716;23.306;2023-05-01T06:18:42;9.10;;;4.80;;
20118;SDS011;10220;42.716;23.306;2023-05-01T06:21:08;7.70;;;4.65;;
20118;SDS011;10220;42.716;23.306;2023-05-01T06:23:33;12.65;;;6.93;;
20118;SDS011;10220;42.716;23.306;2023-05-01T06:25:59;6.53;;;4.70;;
20118;SDS011;10220;42.716;23.306;2023-05-01T06:28:24;15.57;;;9.30;;
20118;SDS011;10220;42.716;23.306;2023-05-01T06:30:50;17.80;;;9.50;;
20118;SDS011;10220;42.716;23.306;2023-05-01T06:33:15;10.75;;;5.22;;
20118;SDS011;10220;42.716;23.306;2023-05-01T06:35:40;42.70;;;21.83;;
20118;SDS011;10220;42.716;23.306;2023-05-01T06:38:06;17.35;;;10.15;;
20118;SDS011;10220;42.716;23.306;2023-05-01T06:40:31;12.65;;;7.63;;
20118;SDS011;10220;42.716;23.306;2023-05-01T06:42:59;44.97;;;23.67;;
20118;SDS011;10220;42.716;23.306;2023-05-01T06:45:30;11.57;;;5.15;;
20118;SDS011;10220;42.716;23.306;2023-05-01T06:47:56;10.50;;;6.03;;
20118;SDS011;10220;42.716;23.306;2023-05-01T06:50:21;10.43;;;6.57;;
20118;SDS011;10220;42.716;23.306;2023-05-01T06:52:47;23.65;;;12.85;;
20118;SDS011;10220;42.716;23.306;2023-05-01T06:55:13;11.80;;;8.35;;
20118;SDS011;10220;42.716;23.306;2023-05-01T06:57:38;8.77;;;6.22;;
20118;SDS011;10220;42.716;23.306;2023-05-01T07:00:07;21.90;;;11.60;;
20118;SDS011;10220;42.716;23.306;2023-05-01T07:02:34;25.50;;;15.57;;
20118;SDS011;10220;42.716;23.306;2023-05-01T07:05:01;38.45;;;21.75;;
20118;SDS011;10220;42.716;23.306;2023-05-01T07:07:27;17.30;;;10.77;;
20118;SDS011;10220;42.716;23.306;2023-05-01T07:09:54;11.70;;;7.93;;
20118;SDS011;10220;42.716;23.306;2023-05-01T07:12:20;7.65;;;5.05;;
20118;SDS011;10220;42.716;23.306;2023-05-01T07:14:46;14.20;;;8.32;;
20118;SDS011;10220;42.716;23.306;2023-05-01T07:17:11;20.60;;;10.68;;
20118;SDS011;10220;42.716;23.306;2023-05-01T07:19:37;6.70;;;4.97;;
20118;SDS011;10220;42.716;23.306;2023-05-01T07:22:02;7.60;;;4.38;;
20118;SDS011;10220;42.716;23.306;2023-05-01T07:24:28;16.02;;;9.77;;
20118;SDS011;10220;42.716;23.306;2023-05-01T07:26:54;18.35;;;9.38;;
20118;SDS011;10220;42.716;23.306;2023-05-01T07:29:20;6.22;;;3.70;;
20118;SDS011;10220;42.716;23.306;2023-05-01T07:31:45;7.40;;;4.70;;
20118;SDS011;10220;42.716;23.306;2023-05-01T07:34:12;5.68;;;4.20;;
20118;SDS011;10220;42.716;23.306;2023-05-01T07:36:37;5.18;;;4.13;;
20118;SDS011;10220;42.716;23.306;2023-05-01T07:39:03;10.40;;;6.78;;
20118;SDS011;10220;42.716;23.306;2023-05-01T07:41:29;5.43;;;4.47;;
20118;SDS011;10220;42.716;23.306;2023-05-01T07:47:04;7.30;;;5.63;;
20118;SDS011;10220;42.716;23.306;2023-05-01T07:52:46;8.25;;;4.82;;
20118;SDS011;10220;42.716;23.306;2023-05-01T07:55:12;5.00;;;3.22;;
20118;SDS011;10220;42.716;23.306;2023-05-01T07:57:37;6.95;;;4.95;;
20118;SDS011;10220;42.716;23.306;2023-05-01T08:00:03;4.90;;;3.30;;
20118;SDS011;10220;42.716;23.306;2023-05-01T08:02:29;5.93;;;4.22;;
20118;SDS011;10220;42.716;23.306;2023-05-01T08:04:54;3.75;;;3.17;;
20118;SDS011;10220;42.716;23.306;2023-05-01T08:07:20;5.03;;;4.03;;
20118;SDS011;10220;42.716;23.306;2023-05-01T08:09:45;12.80;;;7.55;;
20118;SDS011;10220;42.716;23.306;2023-05-01T08:12:11;10.60;;;5.30;;
20118;SDS011;10220;42.716;23.306;2023-05-01T08:14:37;13.38;;;7.35;;
20118;SDS011;10220;42.716;23.306;2023-05-01T08:17:02;7.55;;;4.88;;
20118;SDS011;10220;42.716;23.306;2023-05-01T08:19:28;7.10;;;3.78;;
20118;SDS011;10220;42.716;23.306;2023-05-01T08:21:53;4.13;;;3.58;;
20118;SDS011;10220;42.716;23.306;2023-05-01T08:24:18;4.55;;;3.50;;
20118;SDS011;10220;42.716;23.306;2023-05-01T08:26:49;3.47;;;3.17;;
20118;SDS011;10220;42.716;23.306;2023-05-01T08:29:14;5.57;;;3.63;;
20118;SDS011;10220;42.716;23.306;2023-05-01T08:31:39;3.60;;;3.30;;
20118;SDS011;10220;42.716;23.306;2023-05-01T08:34:07;6.40;;;4.10;;
20118;SDS011;10220;42.716;23.306;2023-05-01T08:36:32;5.10;;;4.38;;
20118;SDS011;10220;42.716;23.306;2023-05-01T08:38:58;6.70;;;3.50;;
20118;SDS011;10220;42.716;23.306;2023-05-01T08:41:23;3.63;;;2.75;;
20118;SDS011;10220;42.716;23.306;2023-05-01T08:43:52;13.93;;;2.97;;
20118;SDS011;10220;42.716;23.306;2023-05-01T08:46:19;4.25;;;2.83;;
20118;SDS011;10220;42.716;23.306;2023-05-01T08:48:53;2.83;;;2.45;;
20118;SDS011;10220;42.716;23.306;2023-05-01T08:51:23;3.25;;;2.42;;
20118;SDS011;10220;42.716;23.306;2023-05-01T08:53:50;2.58;;;2.10;;
20118;SDS011;10220;42.716;23.306;2023-05-01T08:56:18;4.10;;;2.67;;
20118;SDS011;10220;42.716;23.306;2023-05-01T08:58:47;4.70;;;2.70;;
20118;SDS011;10220;42.716;23.306;2023-05-01T09:01:14;5.38;;;2.60;;
20118;SDS011;10220;42.716;23.306;2023-05-01T09:03:39;4.78;;;2.45;;
20118;SDS011;10220;42.716;23.306;2023-05-01T09:06:08;2.70;;;2.22;;
20118;SDS011;10220;42.716;23.306;2023-05-01T09:08:35;3.25;;;1.67;;
20118;SDS011;10220;42.716;23.306;2023-05-01T09:11:00;4.72;;;2.58;;
20118;SDS011;10220;42.716;23.306;2023-05-01T09:13:27;3.05;;;2.20;;
20118;SDS011;10220;42.716;23.306;2023-05-01T09:15:53;5.47;;;1.80;;
20118;SDS011;10220;42.716;23.306;2023-05-01T09:18:18;2.97;;;1.88;;
20118;SDS011;10220;42.716;23.306;2023-05-01T09:20:44;1.52;;;1.33;;
20118;SDS011;10220;42.716;23.306;2023-05-01T09:23:10;3.72;;;2.10;;
20118;SDS011;10220;42.716;23.306;2023-05-01T09:25:35;3.08;;;1.95;;
20118;SDS011;10220;42.716;23.306;2023-05-01T09:28:05;2.15;;;1.80;;
20118;SDS011;10220;42.716;23.306;2023-05-01T09:30:32;2.60;;;1.83;;
20118;SDS011;10220;42.716;23.306;2023-05-01T09:35:54;1.77;;;1.33;;
20118;SDS011;10220;42.716;23.306;2023-05-01T09:38:24;1.95;;;1.52;;
20118;SDS011;10220;42.716;23.306;2023-05-01T09:40:52;2.03;;;1.80;;
20118;SDS011;10220;42.716;23.306;2023-05-01T09:43:30;2.17;;;1.55;;
20118;SDS011;10220;42.716;23.306;2023-05-01T09:46:14;2.95;;;2.00;;
20118;SDS011;10220;42.716;23.306;2023-05-01T09:48:50;2.15;;;1.52;;
20118;SDS011;10220;42.716;23.306;2023-05-01T09:53:55;1.48;;;1.38;;
20118;SDS011;10220;42.716;23.306;2023-05-01T09:56:23;2.03;;;1.23;;
20118;SDS011;10220;42.716;23.306;2023-05-01T09:58:51;5.22;;;1.75;;
20118;SDS011;10220;42.716;23.306;2023-05-01T10:01:17;2.08;;;1.67;;
20118;SDS011;10220;42.716;23.306;2023-05-01T10:03:44;2.50;;;1.42;;
20118;SDS011;10220;42.716;23.306;2023-05-01T10:06:27;1.60;;;1.50;;
20118;SDS011;10220;42.716;23.306;2023-05-01T10:08:52;4.95;;;1.58;;
20118;SDS011;10220;42.716;23.306;2023-05-01T10:11:18;1.70;;;1.33;;
20118;SDS011;10220;42.716;23.306;2023-05-01T10:13:43;2.00;;;1.70;;
20118;SDS011;10220;42.716;23.306;2023-05-01T10:16:28;2.20;;;1.67;;
20118;SDS011;10220;42.716;23.306;2023-05-01T10:18:55;4.45;;;1.88;;
20118;SDS011;10220;42.716;23.306;2023-05-01T10:21:24;4.53;;;1.60;;
20118;SDS011;10220;42.716;23.306;2023-05-01T10:23:50;1.48;;;1.35;;
20118;SDS011;10220;42.716;23.306;2023-05-01T10:26:16;1.40;;;1.20;;
20118;SDS011;10220;42.716;23.306;2023-05-01T10:28:43;4.65;;;1.60;;
20118;SDS011;10220;42.716;23.306;2023-05-01T10:31:11;2.17;;;1.55;;
20118;SDS011;10220;42.716;23.306;2023-05-01T10:33:37;2.28;;;1.40;;
20118;SDS011;10220;42.716;23.306;2023-05-01T10:36:04;3.22;;;1.80;;
20118;SDS011;10220;42.716;23.306;2023-05-01T10:38:33;1.40;;;1.30;;
20118;SDS011;10220;42.716;23.306;2023-05-01T10:40:59;2.85;;;1.85;;
20118;SDS011;10220;42.716;23.306;2023-05-01T10:43:28;0.82;;;0.82;;
20118;SDS011;10220;42.716;23.306;2023-05-01T10:48:54;1.30;;;1.00;;
20118;SDS011;10220;42.716;23.306;2023-05-01T10:51:20;2.13;;;1.10;;
20118;SDS011;10220;42.716;23.306;2023-05-01T10:59:03;1.42;;;1.08;;
20118;SDS011;10220;42.716;23.306;2023-05-01T11:12:03;1.88;;;1.20;;
20118;SDS011;10220;42.716;23.306;2023-05-01T11:22:37;0.95;;;0.90;;
20118;SDS011;10220;42.716;23.306;2023-05-01T11:27:48;1.42;;;0.98;;
20118;SDS011;10220;42.716;23.306;2023-05-01T11:30:18;1.98;;;1.73;;
20118;SDS011;10220;42.716;23.306;2023-05-01T11:32:45;2.30;;;1.40;;
20118;SDS011;10220;42.716;23.306;2023-05-01T11:35:30;1.20;;;0.85;;
20118;SDS011;10220;42.716;23.306;2023-05-01T11:37:56;1.67;;;1.00;;
20118;SDS011;10220;42.716;23.306;2023-05-01T11:40:22;1.33;;;1.23;;
20118;SDS011;10220;42.716;23.306;2023-05-01T11:43:25;2.85;;;1.00;;
20118;SDS011;10220;42.716;23.306;2023-05-01T11:45:44;1.27;;;1.00;;
20118;SDS011;10220;42.716;23.306;2023-05-01T11:48:18;1.10;;;1.00;;
20118;SDS011;10220;42.716;23.306;2023-05-01T11:50:45;1.10;;;0.90;;
20118;SDS011;10220;42.716;23.306;2023-05-01T11:53:11;1.08;;;0.90;;
20118;SDS011;10220;42.716;23.306;2023-05-01T11:55:39;2.05;;;1.27;;
20118;SDS011;10220;42.716;23.306;2023-05-01T11:58:05;1.67;;;1.15;;
20118;SDS011;10220;42.716;23.306;2023-05-01T12:00:32;2.08;;;0.95;;
20118;SDS011;10220;42.716;23.306;2023-05-01T12:03:04;1.33;;;0.80;;
20118;SDS011;10220;42.716;23.306;2023-05-01T12:05:33;0.88;;;0.80;;
20118;SDS011;10220;42.716;23.306;2023-05-01T12:10:40;2.17;;;1.30;;
20118;SDS011;10220;42.716;23.306;2023-05-01T12:13:08;0.77;;;0.77;;
20118;SDS011;10220;42.716;23.306;2023-05-01T12:15:35;3.13;;;1.08;;
20118;SDS011;10220;42.716;23.306;2023-05-01T12:18:06;3.53;;;0.63;;
20118;SDS011;10220;42.716;23.306;2023-05-01T12:20:33;0.77;;;0.75;;
20118;SDS011;10220;42.716;23.306;2023-05-01T12:23:19;1.80;;;1.20;;
20118;SDS011;10220;42.716;23.306;2023-05-01T12:26:01;0.82;;;0.82;;
20118;SDS011;10220;42.716;23.306;2023-05-01T12:28:51;4.00;;;1.13;;
20118;SDS011;10220;42.716;23.306;2023-05-01T12:31:17;0.95;;;0.88;;
20118;SDS011;10220;42.716;23.306;2023-05-01T12:33:51;1.00;;;0.90;;
20118;SDS011;10220;42.716;23.306;2023-05-01T12:36:17;1.17;;;0.98;;
20118;SDS011;10220;42.716;23.306;2023-05-01T12:38:52;3.78;;;1.25;;
20118;SDS011;10220;42.716;23.306;2023-05-01T12:41:20;3.22;;;1.15;;
20118;SDS011;10220;42.716;23.306;2023-05-01T12:43:45;1.23;;;0.98;;
20118;SDS011;10220;42.716;23.306;2023-05-01T12:46:12;1.30;;;0.95;;
20118;SDS011;10220;42.716;23.306;2023-05-01T12:48:38;1.17;;;1.08;;
20118;SDS011;10220;42.716;23.306;2023-05-01T12:51:05;0.88;;;0.88;;
20118;SDS011;10220;42.716;23.306;2023-05-01T12:53:31;0.60;;;0.60;;
20118;SDS011;10220;42.716;23.306;2023-05-01T12:55:57;2.25;;;1.00;;
20118;SDS011;10220;42.716;23.306;2023-05-01T12:58:24;0.88;;;0.73;;
20118;SDS011;10220;42.716;23.306;2023-05-01T13:01:00;0.75;;;0.75;;
20118;SDS011;10220;42.716;23.306;2023-05-01T13:03:26;2.55;;;0.82;;
20118;SDS011;10220;42.716;23.306;2023-05-01T13:08:26;2.60;;;0.77;;
20118;SDS011;10220;42.716;23.306;2023-05-01T13:10:58;1.42;;;1.00;;
20118;SDS011;10220;42.716;23.306;2023-05-01T13:13:29;1.38;;;1.10;;
20118;SDS011;10220;42.716;23.306;2023-05-01T13:16:10;1.60;;;1.05;;
20118;SDS011;10220;42.716;23.306;2023-05-01T13:18:46;0.90;;;0.77;;
20118;SDS011;10220;42.716;23.306;2023-05-01T13:21:14;0.70;;;0.70;;
20118;SDS011;10220;42.716;23.306;2023-05-01T13:23:42;1.10;;;1.00;;
20118;SDS011;10220;42.716;23.306;2023-05-01T13:26:26;1.52;;;1.13;;
20118;SDS011;10220;42.716;23.306;2023-05-01T13:29:02;1.33;;;0.90;;
20118;SDS011;10220;42.716;23.306;2023-05-01T13:31:29;1.80;;;0.80;;
20118;SDS011;10220;42.716;23.306;2023-05-01T13:33:56;0.50;;;0.50;;
20118;SDS011;10220;42.716;23.306;2023-05-01T13:36:23;0.98;;;0.85;;
20118;SDS011;10220;42.716;23.306;2023-05-01T13:38:49;0.68;;;0.68;;
20118;SDS011;10220;42.716;23.306;2023-05-01T13:41:21;1.90;;;0.80;;
20118;SDS011;10220;42.716;23.306;2023-05-01T13:43:49;0.95;;;0.77;;
20118;SDS011;10220;42.716;23.306;2023-05-01T13:46:16;0.73;;;0.60;;
20118;SDS011;10220;42.716;23.306;2023-05-01T13:48:43;2.55;;;0.95;;
20118;SDS011;10220;42.716;23.306;2023-05-01T13:51:10;2.75;;;0.75;;
20118;SDS011;10220;42.716;23.306;2023-05-01T13:53:37;0.77;;;0.77;;
20118;SDS011;10220;42.716;23.306;2023-05-01T13:56:09;0.90;;;0.60;;
20118;SDS011;10220;42.716;23.306;2023-05-01T13:58:35;0.70;;;0.70;;
20118;SDS011;10220;42.716;23.306;2023-05-01T14:01:01;1.60;;;0.75;;
20118;SDS011;10220;42.716;23.306;2023-05-01T14:03:36;0.82;;;0.73;;
20118;SDS011;10220;42.716;23.306;2023-05-01T14:06:06;0.73;;;0.68;;
20118;SDS011;10220;42.716;23.306;2023-05-01T14:08:33;0.60;;;0.52;;
20118;SDS011;10220;42.716;23.306;2023-05-01T14:10:59;0.85;;;0.60;;
20118;SDS011;10220;42.716;23.306;2023-05-01T14:13:29;0.68;;;0.68;;
20118;SDS011;10220;42.716;23.306;2023-05-01T14:15:54;1.08;;;0.80;;
20118;SDS011;10220;42.716;23.306;2023-05-01T14:18:20;0.60;;;0.60;;
20118;SDS011;10220;42.716;23.306;2023-05-01T14:20:46;3.35;;;1.05;;
20118;SDS011;10220;42.716;23.306;2023-05-01T14:23:15;0.65;;;0.65;;
20118;SDS011;10220;42.716;23.306;2023-05-01T14:25:41;0.90;;;0.65;;
20118;SDS011;10220;42.716;23.306;2023-05-01T14:28:18;0.77;;;0.77;;
20118;SDS011;10220;42.716;23.306;2023-05-01T14:34:05;1.25;;;1.00;;
20118;SDS011;10220;42.716;23.306;2023-05-01T14:36:32;0.95;;;0.60;;
20118;SDS011;10220;42.716;23.306;2023-05-01T14:38:58;0.85;;;0.73;;
20118;SDS011;10220;42.716;23.306;2023-05-01T14:41:24;1.00;;;0.70;;
20118;SDS011;10220;42.716;23.306;2023-05-01T14:44:14;0.88;;;0.85;;
20118;SDS011;10220;42.716;23.306;2023-05-01T14:46:50;1.00;;;0.90;;
20118;SDS011;10220;42.716;23.306;2023-05-01T14:49:25;1.02;;;0.80;;
20118;SDS011;10220;42.716;23.306;2023-05-01T14:51:51;1.02;;;0.88;;
20118;SDS011;10220;42.716;23.306;2023-05-01T14:54:17;1.02;;;0.90;;
20118;SDS011;10220;42.716;23.306;2023-05-01T14:56:44;1.00;;;0.90;;
20118;SDS011;10220;42.716;23.306;2023-05-01T14:59:11;1.17;;;1.08;;
20118;SDS011;10220;42.716;23.306;2023-05-01T15:01:37;0.85;;;0.82;;
20118;SDS011;10220;42.716;23.306;2023-05-01T15:04:04;1.15;;;0.82;;
20118;SDS011;10220;42.716;23.306;2023-05-01T15:06:34;1.42;;;0.90;;
20118;SDS011;10220;42.716;23.306;2023-05-01T15:09:00;1.13;;;0.82;;
20118;SDS011;10220;42.716;23.306;2023-05-01T15:11:26;3.75;;;1.02;;
20118;SDS011;10220;42.716;23.306;2023-05-01T15:13:51;0.82;;;0.80;;
20118;SDS011;10220;42.716;23.306;2023-05-01T15:16:18;0.98;;;0.80;;
20118;SDS011;10220;42.716;23.306;2023-05-01T15:18:43;1.35;;;0.93;;
20118;SDS011;10220;42.716;23.306;2023-05-01T15:21:09;1.10;;;0.80;;
20118;SDS011;10220;42.716;23.306;2023-05-01T15:23:34;0.98;;;0.85;;
20118;SDS011;10220;42.716;23.306;2023-05-01T15:26:01;1.35;;;0.98;;
20118;SDS011;10220;42.716;23.306;2023-05-01T15:28:27;1.08;;;0.98;;
20118;SDS011;10220;42.716;23.306;2023-05-01T15:30:53;0.93;;;0.90;;
20118;SDS011;10220;42.716;23.306;2023-05-01T15:33:18;2.95;;;0.80;;
20118;SDS011;10220;42.716;23.306;2023-05-01T15:35:44;1.02;;;0.82;;
20118;SDS011;10220;42.716;23.306;2023-05-01T15:38:11;1.00;;;0.90;;
20118;SDS011;10220;42.716;23.306;2023-05-01T15:40:36;0.73;;;0.70;;
20118;SDS011;10220;42.716;23.306;2023-05-01T15:43:03;2.70;;;2.22;;
20118;SDS011;10220;42.716;23.306;2023-05-01T15:45:36;4.15;;;1.90;;
20118;SDS011;10220;42.716;23.306;2023-05-01T15:50:57;1.92;;;1.13;;